Time;durP1;ratioP1;P1;durP2;ratioP2;P2;SDS_P1;SDS_P2;PMS_P1;PMS_P2;Temp;Humidity;BMP_temperature;BMP_pressure;BME280_temperature;BME280_humidity;BME280_pressure;Samples;Min_cycle;Max_cycle;Signal;HPM_P1;HPM_P2
2022/03/06 00:01:30;;;;;;;12.65;9.80;;;2.00;99.30;;;;;;5036468;28;20083;-49
2022/03/06 00:04:14;;;;;;;11.27;9.50;;;2.00;98.90;;;;;;5029400;28;20401;-49
2022/03/06 00:06:58;;;;;;;13.35;9.05;;;2.00;99.20;;;;;;5026862;28;20068;-47
2022/03/06 00:09:42;;;;;;;12.47;10.13;;;2.00;98.80;;;;;;5024395;28;20091;-49
2022/03/06 00:12:26;;;;;;;12.32;9.00;;;2.00;98.80;;;;;;5034571;28;20278;-47
2022/03/06 00:15:10;;;;;;;12.40;9.23;;;2.10;98.40;;;;;;5016255;28;20597;-48
2022/03/06 00:17:55;;;;;;;10.80;8.48;;;2.10;98.50;;;;;;5020207;28;20049;-49
2022/03/06 00:20:43;;;;;;;11.82;8.70;;;2.10;98.30;;;;;;5022572;28;20057;-50
2022/03/06 00:23:28;;;;;;;10.38;8.38;;;2.10;98.30;;;;;;5028126;28;20068;-48
2022/03/06 00:26:12;;;;;;;12.15;9.35;;;2.10;98.30;;;;;;5030137;28;20099;-52
2022/03/06 00:28:56;;;;;;;11.85;9.00;;;2.10;98.10;;;;;;5024712;28;20076;-54
2022/03/06 00:31:40;;;;;;;13.30;9.05;;;2.10;98.30;;;;;;5025265;28;20028;-52
2022/03/06 00:34:24;;;;;;;12.80;9.18;;;2.10;97.90;;;;;;5023479;28;20045;-51
2022/03/06 00:37:08;;;;;;;13.95;9.43;;;2.00;98.20;;;;;;5025698;28;20099;-53
2022/03/06 00:39:52;;;;;;;13.15;8.23;;;2.10;98.20;;;;;;5023615;28;20048;-50
2022/03/06 00:42:36;;;;;;;12.32;8.75;;;2.10;98.30;;;;;;5024248;28;20040;-52
2022/03/06 00:45:20;;;;;;;11.55;8.30;;;2.10;98.20;;;;;;5020219;28;20044;-48
2022/03/06 00:48:05;;;;;;;13.02;8.63;;;2.10;98.20;;;;;;5022963;28;20099;-51
2022/03/06 00:50:49;;;;;;;;;;;2.20;97.80;;;;;;5024385;28;20033;-48
2022/03/06 00:53:33;;;;;;;9.38;8.13;;;2.30;97.80;;;;;;5020765;28;20288;-50
2022/03/06 00:56:18;;;;;;;11.10;8.82;;;2.20;97.70;;;;;;5023063;28;20033;-50
2022/03/06 00:59:02;;;;;;;11.68;8.50;;;2.10;97.90;;;;;;5019571;28;20048;-51
2022/03/06 01:01:46;;;;;;;11.40;8.52;;;2.00;97.90;;;;;;5025007;28;20405;-47
2022/03/06 01:04:30;;;;;;;10.23;8.15;;;1.90;97.90;;;;;;5026385;28;20044;-50
2022/03/06 01:07:15;;;;;;;10.48;9.00;;;1.90;98.30;;;;;;5030611;28;20049;-50
2022/03/06 01:09:59;;;;;;;19.33;12.15;;;2.10;98.20;;;;;;5030373;28;20036;-51
2022/03/06 01:12:43;;;;;;;13.38;9.65;;;2.10;98.00;;;;;;5024532;28;20056;-50
2022/03/06 01:15:28;;;;;;;13.95;8.70;;;2.30;97.60;;;;;;5026631;28;20048;-49
2022/03/06 01:18:12;;;;;;;10.30;8.40;;;2.20;97.50;;;;;;5028538;28;20036;-51
2022/03/06 01:20:57;;;;;;;12.83;8.17;;;2.20;97.30;;;;;;5027564;28;20106;-48
2022/03/06 01:23:41;;;;;;;11.65;8.35;;;2.20;97.60;;;;;;5023698;28;20272;-51
2022/03/06 01:26:25;;;;;;;11.37;8.07;;;2.10;97.60;;;;;;5022009;28;20648;-53
2022/03/06 01:29:09;;;;;;;13.75;8.77;;;2.20;97.50;;;;;;5024816;28;20292;-53
2022/03/06 01:31:54;;;;;;;10.88;8.38;;;2.30;97.20;;;;;;5023797;28;20053;-52
2022/03/06 01:34:38;;;;;;;12.30;7.75;;;2.20;97.40;;;;;;5029381;28;20417;-52
2022/03/06 01:37:22;;;;;;;11.02;8.60;;;2.20;97.30;;;;;;5030213;28;20036;-53
2022/03/06 01:40:08;;;;;;;9.98;7.25;;;2.10;97.50;;;;;;5019144;28;20049;-53
2022/03/06 01:42:53;;;;;;;9.93;7.95;;;2.10;97.40;;;;;;5029013;28;20049;-51
2022/03/06 01:45:37;;;;;;;11.43;8.30;;;2.10;97.60;;;;;;5031847;28;20393;-55
2022/03/06 01:48:21;;;;;;;9.70;6.60;;;2.20;97.70;;;;;;5017998;28;20040;-51
2022/03/06 01:51:05;;;;;;;8.82;7.50;;;2.20;97.50;;;;;;5024797;28;20040;-55
2022/03/06 01:53:50;;;;;;;12.32;7.68;;;2.20;97.30;;;;;;5021517;28;20400;-53
2022/03/06 01:56:35;;;;;;;10.90;7.78;;;2.20;97.30;;;;;;5023365;28;20164;-51
2022/03/06 01:59:19;;;;;;;9.88;7.70;;;2.30;97.10;;;;;;5012558;28;20088;-53
2022/03/06 02:02:03;;;;;;;8.18;6.82;;;2.20;97.30;;;;;;5018335;28;20134;-53
2022/03/06 02:04:47;;;;;;;9.35;7.20;;;2.30;97.40;;;;;;5021292;28;20044;-50
2022/03/06 02:07:32;;;;;;;9.77;7.50;;;2.40;97.30;;;;;;5021860;28;20505;-51
2022/03/06 02:10:17;;;;;;;;;;;2.30;97.00;;;;;;5026638;28;20091;-52
2022/03/06 02:13:02;;;;;;;9.25;7.40;;;2.40;96.80;;;;;;5016181;28;20029;-52
2022/03/06 02:15:47;;;;;;;9.80;7.63;;;2.30;97.10;;;;;;5025398;28;20418;-53
2022/03/06 02:18:31;;;;;;;11.80;7.40;;;2.30;97.20;;;;;;5012502;28;20092;-54
2022/03/06 02:21:15;;;;;;;11.77;8.00;;;2.40;97.50;;;;;;5012299;28;20521;-50
2022/03/06 02:23:59;;;;;;;8.25;7.35;;;2.40;97.70;;;;;;5014588;28;20048;-50
2022/03/06 02:26:43;;;;;;;8.90;7.63;;;2.40;97.70;;;;;;5021671;28;20096;-55
2022/03/06 02:29:27;;;;;;;10.27;7.70;;;2.40;97.60;;;;;;5018191;28;20088;-50
2022/03/06 02:32:14;;;;;;;12.50;8.25;;;2.30;97.80;;;;;;5033688;28;20396;-55
2022/03/06 02:34:58;;;;;;;10.32;8.07;;;2.30;97.80;;;;;;5033179;28;20040;-54
2022/03/06 02:37:43;;;;;;;11.02;8.15;;;2.20;98.10;;;;;;5024158;28;20082;-54
2022/03/06 02:40:28;;;;;;;9.88;7.85;;;2.20;98.20;;;;;;5027551;28;20076;-52
2022/03/06 02:43:13;;;;;;;;;;;2.20;98.40;;;;;;5035399;28;20044;-49
2022/03/06 02:45:57;;;;;;;9.70;7.93;;;2.10;98.50;;;;;;5032859;28;20276;-56
2022/03/06 02:48:41;;;;;;;9.30;7.82;;;2.10;98.40;;;;;;5015887;28;20319;-52
2022/03/06 02:51:25;;;;;;;11.23;7.97;;;2.00;98.40;;;;;;5015839;28;20040;-54
2022/03/06 02:54:10;;;;;;;12.13;7.70;;;1.90;98.80;;;;;;5016822;28;20536;-56
2022/03/06 02:56:54;;;;;;;11.93;8.43;;;1.90;98.80;;;;;;5016241;28;20053;-53
2022/03/06 02:59:39;;;;;;;10.38;7.80;;;1.80;99.00;;;;;;5023014;28;20046;-51
2022/03/06 03:02:24;;;;;;;13.50;8.00;;;2.00;98.70;;;;;;5015421;28;20037;-51
2022/03/06 03:05:12;;;;;;;12.07;9.20;;;2.10;98.70;;;;;;5015749;28;20036;-52
2022/03/06 03:07:57;;;;;;;9.90;7.93;;;2.00;98.60;;;;;;5024636;28;20087;-52
2022/03/06 03:10:41;;;;;;;11.27;8.05;;;2.00;98.50;;;;;;5015207;28;20041;-52
2022/03/06 03:13:25;;;;;;;11.07;8.15;;;2.00;98.40;;;;;;5014294;28;20049;-51
2022/03/06 03:16:09;;;;;;;13.02;8.73;;;2.00;98.20;;;;;;5018681;28;20496;-53
2022/03/06 03:18:54;;;;;;;10.98;7.47;;;2.00;98.40;;;;;;5020207;28;20524;-52
2022/03/06 03:21:38;;;;;;;11.13;8.88;;;2.00;98.30;;;;;;5018646;28;20440;-54
2022/03/06 03:24:24;;;;;;;11.98;8.23;;;2.10;98.00;;;;;;5015664;28;20403;-55
2022/03/06 03:27:08;;;;;;;10.02;7.57;;;2.10;98.00;;;;;;5022993;28;20033;-53
2022/03/06 03:29:52;;;;;;;11.40;8.10;;;2.10;98.10;;;;;;5015247;28;20525;-53
2022/03/06 03:32:36;;;;;;;11.45;7.63;;;2.20;98.20;;;;;;5034598;28;20074;-51
2022/03/06 03:35:20;;;;;;;10.52;7.97;;;2.20;98.00;;;;;;5032365;28;20421;-51
2022/03/06 03:38:05;;;;;;;10.40;7.82;;;2.10;98.50;;;;;;5025070;28;20090;-50
2022/03/06 03:40:49;;;;;;;10.13;7.90;;;2.20;98.50;;;;;;5019889;28;20033;-55
2022/03/06 03:43:34;;;;;;;9.77;7.82;;;2.20;98.50;;;;;;5033828;28;20602;-55
2022/03/06 03:46:18;;;;;;;12.20;7.70;;;2.20;98.30;;;;;;5017866;28;20048;-51
2022/03/06 03:49:02;;;;;;;12.02;7.72;;;2.30;98.20;;;;;;5032737;28;20081;-50
2022/03/06 03:51:46;;;;;;;9.65;7.85;;;2.30;98.00;;;;;;5021683;28;20044;-49
2022/03/06 03:54:31;;;;;;;12.82;8.15;;;2.20;98.00;;;;;;5016645;28;20512;-52
2022/03/06 03:57:15;;;;;;;10.82;8.45;;;2.20;98.10;;;;;;5014127;28;20104;-51
2022/03/06 03:59:59;;;;;;;14.20;7.70;;;2.10;98.50;;;;;;5030816;28;20235;-53
2022/03/06 04:02:43;;;;;;;12.00;8.85;;;2.10;98.40;;;;;;5033650;28;20048;-54
2022/03/06 04:05:27;;;;;;;11.20;7.43;;;2.10;98.60;;;;;;5015470;28;20052;-52
2022/03/06 04:08:11;;;;;;;9.33;7.27;;;2.10;98.50;;;;;;5026510;28;20053;-53
2022/03/06 04:10:59;;;;;;;8.48;6.57;;;2.10;98.20;;;;;;5024908;28;20109;-51
2022/03/06 04:13:43;;;;;;;12.70;8.45;;;2.10;98.10;;;;;;5032714;28;20160;-54
2022/03/06 04:16:28;;;;;;;13.40;7.55;;;2.00;98.20;;;;;;5023212;28;20585;-55
2022/03/06 04:19:12;;;;;;;11.00;7.80;;;1.90;98.50;;;;;;5032765;28;20090;-53
2022/03/06 04:21:56;;;;;;;10.80;7.22;;;2.00;98.70;;;;;;5016481;28;20044;-53
2022/03/06 04:24:40;;;;;;;10.98;7.85;;;2.10;98.40;;;;;;5014077;28;20060;-51
2022/03/06 04:27:24;;;;;;;10.60;7.45;;;2.10;97.90;;;;;;5014507;28;20121;-56
2022/03/06 04:30:09;;;;;;;9.18;7.38;;;2.20;97.70;;;;;;5031764;22;20115;-84
2022/03/06 04:32:53;;;;;;;;;;;2.20;97.90;;;;;;5019467;28;20072;-83
2022/03/06 04:35:38;;;;;;;11.88;7.00;;;2.10;98.00;;;;;;4999919;28;20416;-83
2022/03/06 04:38:22;;;;;;;8.88;6.80;;;2.00;98.00;;;;;;4985638;28;20158;-84
2022/03/06 04:41:07;;;;;;;13.15;7.32;;;2.00;98.50;;;;;;4985446;28;20048;-84
2022/03/06 04:43:52;;;;;;;9.43;7.55;;;2.10;98.40;;;;;;4986873;28;20077;-83
2022/03/06 04:46:36;;;;;;;11.77;7.70;;;2.10;98.30;;;;;;4998779;28;20041;-84
2022/03/06 04:49:20;;;;;;;8.80;7.35;;;2.20;98.10;;;;;;4986496;28;20036;-83
2022/03/06 04:52:05;;;;;;;10.48;7.50;;;2.10;98.20;;;;;;5003497;28;20081;-83
2022/03/06 04:54:49;;;;;;;10.63;7.80;;;2.20;98.10;;;;;;4990161;28;20108;-84
2022/03/06 04:57:33;;;;;;;10.63;7.23;;;2.10;97.80;;;;;;4986560;28;20037;-83
2022/03/06 05:00:17;;;;;;;9.60;6.95;;;2.10;98.00;;;;;;4998984;28;20038;-84
2022/03/06 05:03:01;;;;;;;12.32;7.25;;;2.20;97.90;;;;;;4999361;28;20041;-84
2022/03/06 05:05:46;;;;;;;11.48;7.47;;;2.20;98.00;;;;;;4999571;28;20033;-83
2022/03/06 05:08:30;;;;;;;11.23;8.10;;;2.20;97.80;;;;;;4980493;28;20054;-83
2022/03/06 05:11:14;;;;;;;10.60;7.25;;;2.20;97.60;;;;;;5007343;28;20196;-84
2022/03/06 05:13:59;;;;;;;7.57;6.75;;;2.20;97.80;;;;;;4995665;28;20065;-81
2022/03/06 05:16:43;;;;;;;12.63;8.02;;;2.20;97.90;;;;;;4999523;28;20089;-84
2022/03/06 05:19:28;;;;;;;10.98;8.25;;;2.20;97.50;;;;;;5011059;28;20037;-86
2022/03/06 05:22:12;;;;;;;11.40;7.95;;;2.20;97.60;;;;;;5013622;28;20037;-83
2022/03/06 05:24:58;;;;;;;12.75;8.10;;;2.20;97.70;;;;;;5002661;28;20045;-84
2022/03/06 05:27:42;;;;;;;9.23;6.95;;;2.20;97.80;;;;;;5002965;28;20049;-85
2022/03/06 05:30:26;;;;;;;12.93;7.73;;;2.30;97.90;;;;;;4996732;28;20045;-86
2022/03/06 05:33:11;;;;;;;9.95;8.02;;;2.30;98.00;;;;;;4984884;28;20050;-87
2022/03/06 05:35:55;;;;;;;12.13;8.55;;;2.30;97.60;;;;;;4998856;28;20026;-86
2022/03/06 05:38:39;;;;;;;13.93;8.38;;;2.10;97.80;;;;;;4985512;28;20034;-84
2022/03/06 05:41:24;;;;;;;17.38;8.98;;;2.10;97.90;;;;;;4971872;28;20134;-84
2022/03/06 05:44:08;;;;;;;12.27;9.48;;;2.00;98.00;;;;;;4990661;28;20037;-82
2022/03/06 05:46:53;;;;;;;12.23;8.60;;;2.00;98.30;;;;;;4984242;28;20057;-82
2022/03/06 05:49:37;;;;;;;14.00;9.02;;;2.00;98.10;;;;;;4983684;28;20046;-83
2022/03/06 05:52:22;;;;;;;12.00;8.85;;;2.10;98.20;;;;;;4983747;28;20016;-83
2022/03/06 05:55:07;;;;;;;12.27;8.90;;;2.00;98.50;;;;;;4999879;28;20038;-85
2022/03/06 05:57:52;;;;;;;14.40;9.45;;;2.10;98.50;;;;;;4999286;28;20086;-83
2022/03/06 06:00:36;;;;;;;15.00;10.48;;;2.10;98.30;;;;;;5001373;28;20433;-82
2022/03/06 06:03:20;;;;;;;13.18;8.98;;;2.10;98.40;;;;;;4965432;28;20510;-82
2022/03/06 06:06:04;;;;;;;14.68;10.05;;;2.10;98.40;;;;;;5012511;28;20044;-84
2022/03/06 06:08:48;;;;;;;11.38;8.75;;;2.10;97.90;;;;;;4999995;28;20045;-83
2022/03/06 06:11:33;;;;;;;12.80;8.70;;;2.10;97.80;;;;;;4989782;28;20038;-84
2022/03/06 06:14:20;;;;;;;;;;;2.10;97.90;;;;;;5005426;28;20041;-87
2022/03/06 06:17:04;;;;;;;12.00;8.63;;;2.20;98.00;;;;;;5002157;28;20044;-83
2022/03/06 06:19:48;;;;;;;11.57;8.65;;;2.10;98.20;;;;;;4988583;28;20546;-83
2022/03/06 06:22:34;;;;;;;12.40;9.48;;;2.00;98.70;;;;;;5003299;28;20038;-83
2022/03/06 06:25:18;;;;;;;13.18;9.52;;;2.10;98.80;;;;;;5006837;28;20037;-84
2022/03/06 06:28:02;;;;;;;12.82;9.57;;;2.10;98.80;;;;;;4991754;28;20065;-84
2022/03/06 06:30:47;;;;;;;12.82;9.55;;;2.00;99.20;;;;;;4988084;28;20117;-84
2022/03/06 06:33:31;;;;;;;13.50;9.02;;;2.10;99.00;;;;;;4982200;28;20089;-84
2022/03/06 06:36:15;;;;;;;14.05;9.18;;;2.00;99.30;;;;;;4976009;28;20038;-85
2022/03/06 06:38:59;;;;;;;10.48;9.07;;;2.00;99.10;;;;;;4990439;28;20509;-85
2022/03/06 06:41:43;;;;;;;13.75;8.68;;;2.00;99.70;;;;;;4987624;28;20045;-85
2022/03/06 06:44:27;;;;;;;11.93;9.00;;;2.00;99.40;;;;;;5001721;28;20045;-82
2022/03/06 06:47:11;;;;;;;11.73;9.07;;;2.10;99.40;;;;;;4986562;28;20112;-84
2022/03/06 06:49:55;;;;;;;11.18;8.30;;;2.00;99.40;;;;;;4987074;28;20455;-85
2022/03/06 06:52:40;;;;;;;14.32;9.60;;;2.10;99.50;;;;;;5006751;28;20100;-85
2022/03/06 06:55:24;;;;;;;13.30;9.48;;;2.10;99.40;;;;;;5005565;28;20100;-84
2022/03/06 06:58:09;;;;;;;10.68;8.50;;;2.10;99.40;;;;;;5000466;28;20041;-85
2022/03/06 07:00:54;;;;;;;12.93;8.57;;;2.10;99.30;;;;;;4995275;28;20037;-83
2022/03/06 07:03:38;;;;;;;12.10;8.88;;;2.00;99.20;;;;;;4967530;28;20049;-84
2022/03/06 07:06:23;;;;;;;11.27;8.07;;;1.90;99.30;;;;;;4984097;28;20173;-85
2022/03/06 07:09:07;;;;;;;12.23;8.52;;;1.90;99.30;;;;;;4982810;28;22071;-84
2022/03/06 07:11:51;;;;;;;12.00;7.95;;;1.80;99.30;;;;;;5001435;28;20041;-83
2022/03/06 07:14:35;;;;;;;13.45;8.35;;;1.80;99.40;;;;;;5016561;28;20069;-82
2022/03/06 07:17:20;;;;;;;14.65;8.20;;;1.80;99.20;;;;;;4989192;28;20100;-83
2022/03/06 07:20:04;;;;;;;12.18;8.30;;;1.90;99.10;;;;;;4989127;28;20050;-83
2022/03/06 07:22:49;;;;;;;;;;;1.80;99.30;;;;;;4980011;28;20435;-85
2022/03/06 07:25:33;;;;;;;10.43;7.97;;;1.70;99.60;;;;;;4984180;28;19998;-85
2022/03/06 07:28:18;;;;;;;11.63;8.15;;;1.80;99.50;;;;;;5003387;28;20036;-84
2022/03/06 07:31:02;;;;;;;11.27;8.25;;;1.90;99.40;;;;;;4978196;28;20093;-84
2022/03/06 07:33:46;;;;;;;12.13;8.35;;;2.00;99.30;;;;;;4989328;28;20014;-83
2022/03/06 07:36:31;;;;;;;11.32;8.40;;;2.00;99.50;;;;;;5023854;28;20092;-85
2022/03/06 07:39:15;;;;;;;11.70;8.25;;;2.00;99.30;;;;;;5002861;28;20033;-86
2022/03/06 07:41:59;;;;;;;11.07;7.75;;;2.10;98.90;;;;;;4988564;28;20070;-84
2022/03/06 07:44:43;;;;;;;13.53;10.33;;;2.10;98.70;;;;;;5005722;28;20049;-85
2022/03/06 07:47:28;;;;;;;13.90;9.38;;;2.20;98.60;;;;;;4988989;28;20158;-84
2022/03/06 07:50:14;;;;;;;11.65;8.52;;;2.30;98.50;;;;;;4997641;28;20078;-83
2022/03/06 07:52:58;;;;;;;14.00;8.45;;;2.30;98.60;;;;;;4991364;28;20040;-84
2022/03/06 07:55:42;;;;;;;11.95;8.00;;;2.20;98.40;;;;;;4998798;28;20074;-83
2022/03/06 07:58:26;;;;;;;11.57;7.70;;;2.30;98.30;;;;;;5003243;28;20624;-87
2022/03/06 08:01:11;;;;;;;13.27;7.90;;;2.30;98.40;;;;;;4986055;28;20046;-83
2022/03/06 08:03:55;;;;;;;10.38;8.38;;;2.40;98.40;;;;;;4984858;28;20553;-82
2022/03/06 08:06:39;;;;;;;9.70;8.00;;;2.50;97.90;;;;;;4995077;28;20150;-83
2022/03/06 08:09:26;;;;;;;12.23;8.45;;;2.50;97.70;;;;;;4986698;28;20046;-84
2022/03/06 08:12:11;;;;;;;10.98;7.60;;;2.40;97.80;;;;;;4993626;28;20034;-83
2022/03/06 08:14:55;;;;;;;9.52;7.10;;;2.50;97.40;;;;;;4972198;28;20053;-83
2022/03/06 08:17:39;;;;;;;9.50;8.05;;;2.40;97.90;;;;;;4977692;28;20062;-84
2022/03/06 08:20:23;;;;;;;11.35;8.30;;;2.40;97.90;;;;;;4980041;28;20093;-84
2022/03/06 08:23:07;;;;;;;10.73;7.38;;;2.40;98.00;;;;;;4976309;28;20034;-82
2022/03/06 08:25:51;;;;;;;12.02;7.18;;;2.50;97.70;;;;;;4978423;28;20037;-81
2022/03/06 08:28:36;;;;;;;11.48;8.50;;;2.70;97.40;;;;;;4997238;28;20021;-84
2022/03/06 08:31:20;;;;;;;10.50;8.43;;;2.80;97.10;;;;;;5007837;28;20037;-83
2022/03/06 08:34:04;;;;;;;11.20;8.27;;;2.80;97.00;;;;;;4996507;28;20033;-82
2022/03/06 08:36:49;;;;;;;16.17;9.82;;;2.90;96.70;;;;;;5000000;28;20137;-84
2022/03/06 08:39:33;;;;;;;10.90;8.97;;;2.90;96.20;;;;;;5015296;28;20056;-83
2022/03/06 08:42:17;;;;;;;13.38;9.45;;;3.00;96.20;;;;;;5002179;28;20045;-83
2022/03/06 08:45:02;;;;;;;12.45;8.95;;;3.20;95.90;;;;;;5014142;28;20033;-82
2022/03/06 08:47:47;;;;;;;11.77;9.15;;;3.30;95.80;;;;;;5001023;28;20327;-82
2022/03/06 08:50:31;;;;;;;10.77;9.38;;;3.30;95.10;;;;;;4986111;28;20028;-83
2022/03/06 08:53:18;;;;;;;15.73;10.32;;;3.10;94.60;;;;;;5002979;28;20059;-82
2022/03/06 08:56:02;;;;;;;16.42;9.32;;;3.10;94.90;;;;;;4967878;28;20037;-83
2022/03/06 08:58:47;;;;;;;13.23;8.95;;;3.20;94.90;;;;;;4972832;28;20065;-82
2022/03/06 09:01:30;;;;;;;14.40;10.00;;;3.20;94.40;;;;;;4985935;28;20102;-84
2022/03/06 09:04:15;;;;;;;13.27;9.33;;;3.20;94.60;;;;;;4979817;28;20036;-83
2022/03/06 09:06:59;;;;;;;15.88;9.27;;;3.20;94.70;;;;;;4989930;28;20029;-83
2022/03/06 09:09:43;;;;;;;12.95;9.40;;;3.40;94.60;;;;;;4984275;28;20112;-83
2022/03/06 09:12:28;;;;;;;13.70;9.70;;;3.30;94.20;;;;;;4984845;28;20047;-82
2022/03/06 09:15:12;;;;;;;15.00;10.15;;;3.30;94.50;;;;;;4984028;28;20398;-82
2022/03/06 09:17:57;;;;;;;13.70;9.77;;;3.40;94.20;;;;;;4985583;28;20513;-85
2022/03/06 09:20:41;;;;;;;13.95;9.38;;;3.30;93.50;;;;;;4984196;28;20402;-82
2022/03/06 09:23:26;;;;;;;13.55;9.55;;;3.50;93.70;;;;;;4994701;28;20037;-84
2022/03/06 09:26:10;;;;;;;13.18;9.75;;;3.50;93.70;;;;;;4987837;28;20057;-82
2022/03/06 09:28:54;;;;;;;20.02;10.68;;;3.70;93.80;;;;;;5003098;28;20061;-82
2022/03/06 09:31:39;;;;;;;15.68;10.50;;;3.70;93.40;;;;;;4997068;28;20144;-84
2022/03/06 09:34:24;;;;;;;;;;;3.70;92.80;;;;;;4974812;28;20042;-82
2022/03/06 09:37:08;;;;;;;12.13;8.93;;;3.70;92.90;;;;;;4998217;28;19968;-82
2022/03/06 09:39:52;;;;;;;15.15;9.43;;;3.60;93.20;;;;;;4998422;28;20097;-84
2022/03/06 09:42:37;;;;;;;14.80;10.30;;;3.60;93.40;;;;;;4998666;28;20105;-84
2022/03/06 09:45:25;;;;;;;12.15;9.57;;;3.70;92.80;;;;;;4969774;28;20118;-83
2022/03/06 09:48:11;;;;;;;13.27;9.88;;;3.80;92.70;;;;;;4967722;28;20038;-84
2022/03/06 09:50:57;;;;;;;11.52;8.80;;;3.90;92.60;;;;;;4977665;28;20464;-84
2022/03/06 09:53:41;;;;;;;10.73;8.43;;;3.90;92.60;;;;;;4990526;28;20112;-86
2022/03/06 09:56:26;;;;;;;12.75;9.77;;;3.90;92.40;;;;;;4991931;28;20029;-83
2022/03/06 09:59:11;;;;;;;12.45;8.50;;;3.70;92.60;;;;;;4972027;28;20090;-83
2022/03/06 10:01:59;;;;;;;14.60;9.18;;;3.60;92.00;;;;;;4976408;28;20113;-84
2022/03/06 10:04:46;;;;;;;9.40;7.60;;;3.60;91.80;;;;;;4997647;28;20088;-83
2022/03/06 10:07:30;;;;;;;11.55;7.30;;;3.70;91.30;;;;;;4987941;28;20030;-83
2022/03/06 10:10:33;;;;;;;9.95;7.40;;;3.80;90.40;;;;;;4983436;28;20046;-84
2022/03/06 10:13:38;;;;;;;14.13;7.90;;;3.80;89.60;;;;;;4978260;28;20057;-83
2022/03/06 10:16:23;;;;;;;8.52;6.78;;;3.80;89.00;;;;;;4999341;28;20037;-82
2022/03/06 10:19:07;;;;;;;11.98;7.35;;;3.70;89.40;;;;;;4986776;28;20077;-85
2022/03/06 10:21:51;;;;;;;10.98;7.35;;;3.80;89.60;;;;;;4984798;28;20034;-85
2022/03/06 10:25:05;;;;;;;12.65;7.43;;;4.00;90.10;;;;;;4988112;28;20045;-82
2022/03/06 10:27:57;;;;;;;10.02;7.28;;;4.00;89.60;;;;;;5000375;28;20113;-82
2022/03/06 10:30:42;;;;;;;12.00;7.38;;;3.70;89.30;;;;;;4968145;28;20038;-83
2022/03/06 10:33:26;;;;;;;11.98;8.23;;;3.50;90.40;;;;;;4954760;28;20037;-83
2022/03/06 10:36:12;;;;;;;11.73;7.57;;;3.30;91.10;;;;;;4985510;28;20046;-83
2022/03/06 10:38:56;;;;;;;10.10;8.00;;;3.40;91.50;;;;;;5000847;28;20061;-83
2022/03/06 10:41:42;;;;;;;12.57;8.40;;;3.40;91.70;;;;;;4999984;28;20037;-82
2022/03/06 10:44:47;;;;;;;12.88;8.93;;;3.20;91.40;;;;;;5001644;28;20071;-84
2022/03/06 10:47:47;;;;;;;14.30;9.95;;;3.30;92.20;;;;;;5003256;28;20398;-82
2022/03/06 10:50:31;;;;;;;12.27;9.05;;;3.30;92.40;;;;;;5001739;28;20110;-83
2022/03/06 10:53:23;;;;;;;16.13;10.10;;;3.40;92.90;;;;;;4988771;28;20093;-84
2022/03/06 10:56:14;;;;;;;14.05;10.43;;;3.30;93.30;;;;;;5007867;28;20073;-86
2022/03/06 10:59:02;;;;;;;15.43;10.57;;;3.00;94.00;;;;;;5011178;28;20036;-86
2022/03/06 11:01:51;;;;;;;12.18;9.18;;;3.20;93.90;;;;;;5008315;28;20045;-86
2022/03/06 11:04:42;;;;;;;14.23;8.55;;;3.00;93.90;;;;;;4985247;28;20026;-86
2022/03/06 11:07:28;;;;;;;12.18;8.60;;;3.10;93.60;;;;;;5006975;28;20548;-86
2022/03/06 11:10:13;;;;;;;10.45;7.93;;;3.10;93.70;;;;;;5006605;28;20098;-84
2022/03/06 11:12:58;;;;;;;8.98;7.55;;;3.10;93.60;;;;;;5007432;28;20053;-84
2022/03/06 11:15:42;;;;;;;12.52;8.13;;;3.10;93.60;;;;;;4994354;28;20058;-84
2022/03/06 11:18:27;;;;;;;9.57;7.80;;;3.00;93.70;;;;;;4994760;28;20090;-84
2022/03/06 11:21:18;;;;;;;10.73;7.72;;;3.00;94.00;;;;;;4989787;28;20269;-89
2022/03/06 11:24:18;;;;;;;9.30;6.38;;;3.00;94.20;;;;;;5000197;28;20044;-85
2022/03/06 11:27:28;;;;;;;8.43;6.22;;;2.80;94.00;;;;;;5003636;28;20113;-84
2022/03/06 11:30:24;;;;;;;8.52;5.90;;;2.80;93.70;;;;;;5002950;28;20370;-85
2022/03/06 11:33:11;;;;;;;8.23;5.35;;;2.80;93.00;;;;;;4976751;28;20045;-85
2022/03/06 11:35:56;;;;;;;8.93;5.25;;;2.80;92.10;;;;;;5001383;28;20153;-85
2022/03/06 11:38:46;;;;;;;9.05;5.95;;;2.60;92.10;;;;;;4987424;28;20041;-85
2022/03/06 11:41:36;;;;;;;8.43;5.50;;;2.70;92.10;;;;;;5002555;28;20053;-85
2022/03/06 11:44:43;;;;;;;7.43;5.03;;;2.60;92.40;;;;;;5000395;28;20110;-85
2022/03/06 11:47:41;;;;;;;9.70;5.68;;;2.60;92.10;;;;;;4974861;28;20077;-84
2022/03/06 11:50:25;;;;;;;7.97;5.45;;;2.70;92.40;;;;;;4987755;28;20041;-85
2022/03/06 11:53:20;;;;;;;7.68;5.43;;;2.70;92.10;;;;;;4985978;28;20034;-86
2022/03/06 11:56:30;;;;;;;7.82;4.90;;;2.60;91.90;;;;;;4973829;28;20045;-84
2022/03/06 11:59:18;;;;;;;8.00;5.03;;;2.40;92.20;;;;;;5003390;28;20060;-84
2022/03/06 12:02:08;;;;;;;5.78;4.90;;;2.30;92.40;;;;;;5009459;28;20065;-85
2022/03/06 12:04:54;;;;;;;10.05;5.22;;;2.30;92.60;;;;;;4992002;28;20053;-86
2022/03/06 12:07:40;;;;;;;7.57;4.82;;;2.40;92.50;;;;;;5005003;28;20081;-86
2022/03/06 12:10:31;;;;;;;6.40;4.85;;;2.60;92.30;;;;;;5003937;28;20037;-87
2022/03/06 12:13:18;;;;;;;8.10;4.80;;;2.70;91.60;;;;;;4988405;28;20061;-85
2022/03/06 12:16:11;;;;;;;9.10;5.07;;;2.80;91.70;;;;;;4976365;28;20394;-85
2022/03/06 12:19:04;;;;;;;6.97;4.45;;;2.90;91.00;;;;;;5006064;28;20033;-86
2022/03/06 12:21:51;;;;;;;6.40;4.75;;;2.80;90.70;;;;;;4991674;28;20409;-84
2022/03/06 12:24:36;;;;;;;8.30;4.97;;;2.70;91.30;;;;;;4992732;28;20037;-85
2022/03/06 12:27:23;;;;;;;;;;;2.70;91.10;;;;;;4993748;28;20533;-84
2022/03/06 12:30:13;;;;;;;6.95;4.05;;;2.70;90.70;;;;;;5002312;28;19939;-86
2022/03/06 12:32:57;;;;;;;5.60;3.70;;;2.50;91.20;;;;;;5003105;28;20037;-84
2022/03/06 12:35:44;;;;;;;8.10;5.38;;;2.30;91.30;;;;;;5002249;28;20049;-85
2022/03/06 12:38:28;;;;;;;8.02;4.78;;;2.30;91.40;;;;;;4990410;28;20535;-85
2022/03/06 12:41:13;;;;;;;5.13;4.38;;;2.20;91.60;;;;;;4977134;28;20037;-85
2022/03/06 12:44:24;;;;;;;7.05;3.92;;;2.20;91.80;;;;;;4988525;28;20049;-85
2022/03/06 12:47:09;;;;;;;6.25;4.68;;;2.20;91.30;;;;;;5003001;28;20042;-85
2022/03/06 12:49:59;;;;;;;7.57;4.68;;;2.10;91.00;;;;;;4977213;28;20114;-86
2022/03/06 12:52:52;;;;;;;7.38;4.80;;;2.00;90.60;;;;;;5006020;28;20041;-86
2022/03/06 12:55:37;;;;;;;5.57;3.92;;;2.10;90.50;;;;;;5005023;28;20518;-86
2022/03/06 12:58:44;;;;;;;6.10;4.05;;;2.00;90.30;;;;;;5005703;28;20034;-85
2022/03/06 13:01:34;;;;;;;6.97;3.88;;;1.90;90.10;;;;;;4993524;28;20238;-85
2022/03/06 13:04:21;;;;;;;5.22;4.32;;;1.90;90.50;;;;;;5001741;28;20046;-85
2022/03/06 13:07:07;;;;;;;11.10;4.50;;;1.90;90.40;;;;;;5003635;28;20041;-85
2022/03/06 13:10:14;;;;;;;5.70;4.43;;;2.00;90.30;;;;;;5002328;28;20060;-86
2022/03/06 13:12:59;;;;;;;5.22;4.40;;;2.00;89.80;;;;;;5002707;28;20033;-84
2022/03/06 13:15:50;;;;;;;8.55;4.13;;;1.90;89.50;;;;;;4974518;28;20178;-86
2022/03/06 13:18:38;;;;;;;4.82;4.25;;;1.90;89.80;;;;;;5002587;28;20077;-85
2022/03/06 13:21:27;;;;;;;6.13;4.15;;;1.90;89.50;;;;;;5002564;28;20060;-85
2022/03/06 13:24:17;;;;;;;4.68;4.05;;;2.00;88.90;;;;;;5000797;28;20040;-84
2022/03/06 13:27:04;;;;;;;6.10;4.30;;;1.90;88.80;;;;;;5001307;28;20033;-86
2022/03/06 13:30:10;;;;;;;6.03;4.20;;;1.90;89.10;;;;;;5001811;28;20045;-85
2022/03/06 13:32:58;;;;;;;6.15;4.10;;;1.90;89.30;;;;;;5000009;28;20049;-84
2022/03/06 13:35:43;;;;;;;5.75;3.97;;;2.00;89.20;;;;;;5000388;28;20120;-84
2022/03/06 13:38:29;;;;;;;7.00;3.92;;;2.20;89.60;;;;;;4988058;28;20116;-83
2022/03/06 13:41:13;;;;;;;7.32;4.30;;;2.10;90.30;;;;;;4987482;28;20041;-84
2022/03/06 13:43:58;;;;;;;6.60;4.13;;;1.90;90.80;;;;;;5000258;28;20104;-85
2022/03/06 13:47:02;;;;;;;;;;;;;;;;;;;;;
2022/03/06 13:49:57;;;;;;;6.20;4.50;;;1.90;91.70;;;;;;5004181;28;20038;-84
2022/03/06 13:52:42;;;;;;;6.50;4.35;;;1.80;91.40;;;;;;5002302;28;20133;-85
2022/03/06 13:55:37;;;;;;;9.20;5.10;;;1.90;91.70;;;;;;4991403;28;20033;-84
2022/03/06 13:58:25;;;;;;;9.80;5.45;;;2.00;91.70;;;;;;5005271;28;20033;-85
2022/03/06 14:01:25;;;;;;;8.32;6.03;;;1.90;91.80;;;;;;5003737;28;20086;-84
2022/03/06 14:04:14;;;;;;;8.23;6.18;;;1.60;92.20;;;;;;5011141;28;20089;-85
2022/03/06 14:07:04;;;;;;;8.65;6.13;;;1.50;92.30;;;;;;4996899;28;20041;-85
2022/03/06 14:09:49;;;;;;;10.38;6.50;;;1.60;92.60;;;;;;5002022;28;20057;-84
2022/03/06 14:12:35;;;;;;;8.48;5.97;;;1.80;92.10;;;;;;4987778;28;20017;-85
2022/03/06 14:15:23;;;;;;;8.07;5.43;;;1.90;92.10;;;;;;5001601;28;20037;-85
2022/03/06 14:18:07;;;;;;;6.70;4.57;;;1.80;92.20;;;;;;4982618;28;20122;-85
2022/03/06 14:20:52;;;;;;;5.97;3.65;;;1.70;92.30;;;;;;4976914;28;20081;-85
2022/03/06 14:23:36;;;;;;;8.02;4.28;;;1.50;92.40;;;;;;4973008;28;20030;-84
2022/03/06 14:26:28;;;;;;;6.38;3.70;;;1.40;92.60;;;;;;4972536;28;20117;-84
2022/03/06 14:29:18;;;;;;;5.10;3.58;;;1.20;92.90;;;;;;4990340;28;20434;-86
2022/03/06 14:32:02;;;;;;;6.32;4.00;;;1.30;92.90;;;;;;4988957;28;20102;-85